Time;durP1;ratioP1;P1;durP2;ratioP2;P2;SDS_P1;SDS_P2;PMS_P1;PMS_P2;Temp;Humidity;BMP_temperature;BMP_pressure;BME280_temperature;BME280_humidity;BME280_pressure;Samples;Min_cycle;Max_cycle;Signal;HPM_P1;HPM_P2
2023/12/14 00:02:26;;;;;;;5.67;5.00;;;;;;;;;;5062159;28;20184;-82
2023/12/14 00:05:31;;;;;;;5.43;4.60;;;;;;;;;;5049699;28;20232;-82
2023/12/14 00:08:35;;;;;;;5.97;5.00;;;;;;;;;;5061246;28;20632;-82
2023/12/14 00:11:39;;;;;;;5.83;4.83;;;;;;;;;;5050371;28;20176;-82
2023/12/14 00:14:43;;;;;;;5.97;4.60;;;;;;;;;;5063091;28;20173;-83
2023/12/14 00:17:47;;;;;;;5.63;4.90;;;;;;;;;;5063515;28;20184;-82
2023/12/14 00:20:54;;;;;;;8.97;5.10;;;;;;;;;;5062695;28;20180;-82
2023/12/14 00:23:58;;;;;;;5.50;4.53;;;;;;;;;;5062592;28;20681;-80
2023/12/14 00:27:03;;;;;;;6.80;5.07;;;;;;;;;;5061157;28;20215;-81
2023/12/14 00:30:08;;;;;;;6.27;5.10;;;;;;;;;;5050797;28;20657;-82
2023/12/14 00:33:12;;;;;;;6.10;5.27;;;;;;;;;;5060826;28;20177;-82
2023/12/14 00:36:19;;;;;;;6.77;4.83;;;;;;;;;;5049420;28;20688;-82
2023/12/14 00:39:23;;;;;;;6.53;5.10;;;;;;;;;;5049658;28;20184;-82
2023/12/14 00:42:28;;;;;;;5.53;4.90;;;;;;;;;;5049522;28;20196;-82
2023/12/14 00:45:32;;;;;;;6.87;5.87;;;;;;;;;;5049466;28;20228;-81
2023/12/14 00:48:36;;;;;;;8.07;6.07;;;;;;;;;;5061833;28;20510;-81
2023/12/14 00:51:41;;;;;;;7.03;5.87;;;;;;;;;;5062283;28;20532;-83
2023/12/14 00:54:45;;;;;;;7.27;5.50;;;;;;;;;;5049244;28;20176;-83
2023/12/14 00:57:49;;;;;;;6.10;5.50;;;;;;;;;;5059914;28;20553;-83
2023/12/14 01:00:54;;;;;;;6.73;5.37;;;;;;;;;;5059788;28;20532;-84
2023/12/14 01:03:59;;;;;;;7.03;5.83;;;;;;;;;;5058811;28;20216;-84
2023/12/14 01:07:04;;;;;;;7.13;5.93;;;;;;;;;;5058855;28;20217;-83
2023/12/14 01:10:08;;;;;;;7.40;6.03;;;;;;;;;;5057755;28;20184;-84
2023/12/14 01:13:12;;;;;;;9.03;6.70;;;;;;;;;;5058429;28;20180;-83
2023/12/14 01:16:17;;;;;;;9.90;6.63;;;;;;;;;;5058266;28;20216;-83
2023/12/14 01:19:21;;;;;;;6.20;5.57;;;;;;;;;;5059310;28;20180;-83
2023/12/14 01:22:25;;;;;;;7.33;5.73;;;;;;;;;;5059346;28;20180;-84
2023/12/14 01:25:29;;;;;;;6.83;6.00;;;;;;;;;;5058322;28;20228;-83
2023/12/14 01:28:34;;;;;;;6.30;5.57;;;;;;;;;;5058348;28;20192;-84
2023/12/14 01:31:38;;;;;;;6.67;5.97;;;;;;;;;;5059107;28;20176;-83
2023/12/14 01:34:43;;;;;;;6.87;5.73;;;;;;;;;;5057962;28;20180;-84
2023/12/14 01:37:47;;;;;;;8.30;5.80;;;;;;;;;;5059076;28;20180;-84
2023/12/14 01:40:52;;;;;;;7.77;6.17;;;;;;;;;;5058291;28;20184;-83
2023/12/14 01:43:56;;;;;;;8.27;6.60;;;;;;;;;;5057628;28;20176;-85
2023/12/14 01:47:00;;;;;;;10.57;6.83;;;;;;;;;;5058519;28;20216;-84
2023/12/14 01:50:04;;;;;;;9.07;6.80;;;;;;;;;;5057626;28;20176;-84
2023/12/14 01:53:08;;;;;;;7.87;6.20;;;;;;;;;;5057977;28;20179;-83
2023/12/14 01:56:13;;;;;;;9.10;6.90;;;;;;;;;;5058061;28;20596;-85
2023/12/14 01:59:19;;;;;;;9.83;6.80;;;;;;;;;;5058491;28;20180;-84
2023/12/14 02:02:25;;;;;;;9.27;6.97;;;;;;;;;;5058388;28;20177;-84
2023/12/14 02:05:29;;;;;;;8.30;6.60;;;;;;;;;;5056870;28;20235;-84
2023/12/14 02:08:33;;;;;;;8.03;6.83;;;;;;;;;;5045778;28;20176;-84
2023/12/14 02:11:37;;;;;;;9.53;6.63;;;;;;;;;;5058069;28;20184;-84
2023/12/14 02:14:41;;;;;;;7.30;6.37;;;;;;;;;;5045821;28;20562;-83
2023/12/14 02:17:45;;;;;;;8.17;6.47;;;;;;;;;;5057652;28;20188;-83
2023/12/14 02:20:50;;;;;;;9.17;7.03;;;;;;;;;;5046221;28;20180;-83
2023/12/14 02:23:54;;;;;;;8.40;6.80;;;;;;;;;;5059418;28;20637;-84
2023/12/14 02:26:58;;;;;;;8.87;6.97;;;;;;;;;;5056226;28;20211;-83
2023/12/14 02:30:06;;;;;;;9.17;6.87;;;;;;;;;;5057281;28;20184;-84
2023/12/14 02:33:10;;;;;;;10.07;7.17;;;;;;;;;;5045904;28;20180;-84
2023/12/14 02:36:15;;;;;;;9.20;7.03;;;;;;;;;;5057032;28;20208;-83
2023/12/14 02:39:19;;;;;;;8.37;6.40;;;;;;;;;;5057754;28;20176;-82
2023/12/14 02:42:23;;;;;;;10.13;6.43;;;;;;;;;;5057417;28;20176;-84
2023/12/14 02:45:27;;;;;;;7.97;6.47;;;;;;;;;;5057876;28;20231;-83
2023/12/14 02:48:31;;;;;;;7.97;6.10;;;;;;;;;;5058130;28;20192;-83
2023/12/14 02:51:36;;;;;;;10.57;6.70;;;;;;;;;;5058354;28;20180;-83
2023/12/14 02:54:40;;;;;;;8.43;6.83;;;;;;;;;;5057336;28;20184;-83
2023/12/14 02:57:44;;;;;;;8.13;6.50;;;;;;;;;;5056651;28;20172;-84
2023/12/14 03:00:48;;;;;;;9.17;7.00;;;;;;;;;;5055734;28;20180;-84
2023/12/14 03:03:53;;;;;;;7.87;6.97;;;;;;;;;;5055800;28;20180;-84
2023/12/14 03:07:02;;;;;;;9.50;7.57;;;;;;;;;;5056697;28;20212;-83
2023/12/14 03:10:07;;;;;;;10.20;7.40;;;;;;;;;;5057468;28;20180;-83
2023/12/14 03:13:11;;;;;;;9.27;7.30;;;;;;;;;;5045296;28;20188;-84
2023/12/14 03:16:16;;;;;;;12.00;7.90;;;;;;;;;;5044746;28;20220;-84
2023/12/14 03:19:21;;;;;;;11.97;8.27;;;;;;;;;;5057515;28;20188;-83
2023/12/14 03:22:25;;;;;;;11.07;8.63;;;;;;;;;;5056713;28;20184;-83
2023/12/14 03:25:29;;;;;;;10.70;8.67;;;;;;;;;;5057236;28;20236;-83
2023/12/14 03:28:33;;;;;;;13.97;9.00;;;;;;;;;;5057804;28;20180;-84
2023/12/14 03:31:39;;;;;;;12.60;9.40;;;;;;;;;;5057493;28;20180;-84
2023/12/14 03:34:43;;;;;;;13.47;9.87;;;;;;;;;;5060199;28;20177;-84
2023/12/14 03:37:47;;;;;;;11.97;9.77;;;;;;;;;;5048685;28;20522;-84
2023/12/14 03:40:52;;;;;;;14.87;10.63;;;;;;;;;;5060785;28;20183;-85
2023/12/14 03:43:56;;;;;;;12.37;9.97;;;;;;;;;;5060756;28;20180;-83
2023/12/14 03:47:00;;;;;;;13.80;10.97;;;;;;;;;;5059980;28;20207;-84
2023/12/14 03:50:05;;;;;;;13.47;10.53;;;;;;;;;;5060755;28;20188;-83
2023/12/14 03:53:09;;;;;;;14.17;10.50;;;;;;;;;;5048480;28;20180;-84
2023/12/14 03:56:13;;;;;;;14.97;11.63;;;;;;;;;;5059801;28;20220;-84
2023/12/14 03:59:17;;;;;;;13.57;10.50;;;;;;;;;;5060291;28;20642;-83
2023/12/14 04:02:22;;;;;;;15.37;10.53;;;;;;;;;;5060829;28;20633;-83
2023/12/14 04:05:26;;;;;;;14.27;11.20;;;;;;;;;;5059435;28;20228;-84
2023/12/14 04:08:30;;;;;;;15.40;10.53;;;;;;;;;;5059760;28;20180;-84
2023/12/14 04:11:34;;;;;;;13.33;10.40;;;;;;;;;;5060320;28;20188;-83
2023/12/14 04:14:39;;;;;;;14.87;11.00;;;;;;;;;;5058707;28;20184;-83
2023/12/14 04:17:43;;;;;;;12.50;10.27;;;;;;;;;;5058806;28;20180;-84
2023/12/14 04:20:47;;;;;;;12.73;9.70;;;;;;;;;;5059240;28;20629;-84
2023/12/14 04:23:51;;;;;;;15.93;11.33;;;;;;;;;;5058110;28;20180;-84
2023/12/14 04:26:55;;;;;;;14.17;10.43;;;;;;;;;;5046760;28;20212;-84
2023/12/14 04:30:00;;;;;;;13.90;11.00;;;;;;;;;;5054821;28;20490;-83
2023/12/14 04:33:04;;;;;;;13.77;10.73;;;;;;;;;;5055214;28;20192;-83
2023/12/14 04:36:08;;;;;;;16.93;11.27;;;;;;;;;;5055072;28;20208;-84
2023/12/14 04:39:12;;;;;;;16.17;10.87;;;;;;;;;;5054688;28;20188;-84
2023/12/14 04:42:16;;;;;;;15.60;11.50;;;;;;;;;;5053828;28;20184;-83
2023/12/14 04:45:21;;;;;;;16.43;11.20;;;;;;;;;;5053417;28;20696;-82
2023/12/14 04:48:25;;;;;;;17.17;11.73;;;;;;;;;;5054069;28;20180;-83
2023/12/14 04:51:29;;;;;;;14.87;11.23;;;;;;;;;;5054609;28;20180;-83
2023/12/14 04:54:35;;;;;;;16.37;12.03;;;;;;;;;;5054600;28;20494;-82
2023/12/14 04:57:39;;;;;;;17.27;12.17;;;;;;;;;;5054877;28;20177;-83
2023/12/14 05:00:43;;;;;;;19.63;11.67;;;;;;;;;;5043500;28;20184;-84
2023/12/14 05:03:47;;;;;;;15.00;11.07;;;;;;;;;;5057223;28;20176;-84
2023/12/14 05:06:51;;;;;;;17.27;12.20;;;;;;;;;;5056815;28;20692;-83
2023/12/14 05:09:56;;;;;;;14.87;11.73;;;;;;;;;;5058383;28;20188;-84
2023/12/14 05:13:01;;;;;;;16.83;12.00;;;;;;;;;;5046332;28;20180;-83
2023/12/14 05:16:05;;;;;;;16.43;11.97;;;;;;;;;;5045498;28;20211;-83
2023/12/14 05:19:09;;;;;;;15.77;12.40;;;;;;;;;;5058743;28;20180;-83
2023/12/14 05:22:13;;;;;;;17.10;12.27;;;;;;;;;;5056775;28;20187;-83
2023/12/14 05:25:17;;;;;;;15.53;12.17;;;;;;;;;;5057687;28;20208;-83
2023/12/14 05:28:21;;;;;;;17.77;13.07;;;;;;;;;;5057291;28;20172;-84
2023/12/14 05:31:25;;;;;;;16.77;12.63;;;;;;;;;;5044977;28;20176;-83
2023/12/14 05:34:29;;;;;;;16.03;12.10;;;;;;;;;;5056618;28;20176;-84
2023/12/14 05:37:33;;;;;;;16.67;12.00;;;;;;;;;;5057065;28;20184;-84
2023/12/14 05:40:37;;;;;;;15.80;11.83;;;;;;;;;;5058122;28;20180;-85
2023/12/14 05:43:41;;;;;;;14.23;11.17;;;;;;;;;;5057767;28;20176;-80
2023/12/14 05:46:45;;;;;;;18.57;12.03;;;;;;;;;;5056290;28;20227;-84
2023/12/14 05:49:49;;;;;;;16.20;11.60;;;;;;;;;;5056327;28;20180;-83
2023/12/14 05:52:54;;;;;;;16.77;11.43;;;;;;;;;;5056719;28;20633;-82
2023/12/14 05:55:59;;;;;;;17.10;11.57;;;;;;;;;;5056173;28;20613;-83
2023/12/14 05:59:03;;;;;;;16.27;11.40;;;;;;;;;;5057058;28;20180;-82
2023/12/14 06:02:08;;;;;;;15.17;11.20;;;;;;;;;;5057265;28;20180;-83
2023/12/14 06:05:12;;;;;;;15.33;10.57;;;;;;;;;;5056398;28;20180;-83
2023/12/14 06:08:16;;;;;;;15.40;11.37;;;;;;;;;;5056846;28;20180;-83
2023/12/14 06:11:20;;;;;;;16.93;11.63;;;;;;;;;;5056518;28;20188;-83
2023/12/14 06:14:24;;;;;;;16.53;11.60;;;;;;;;;;5056900;28;20184;-83
2023/12/14 06:17:28;;;;;;;14.97;11.03;;;;;;;;;;5057073;28;20172;-82
2023/12/14 06:20:32;;;;;;;16.83;11.87;;;;;;;;;;5056524;28;20180;-82
2023/12/14 06:23:36;;;;;;;17.80;11.10;;;;;;;;;;5055952;28;20180;-84
2023/12/14 06:26:42;;;;;;;14.77;11.07;;;;;;;;;;5055905;28;20219;-84
2023/12/14 06:29:46;;;;;;;17.50;11.33;;;;;;;;;;5055624;28;20180;-83
2023/12/14 06:32:51;;;;;;;16.23;11.50;;;;;;;;;;5056780;28;20180;-82
2023/12/14 06:35:55;;;;;;;14.77;10.97;;;;;;;;;;5056521;28;20212;-84
2023/12/14 06:39:00;;;;;;;15.30;11.80;;;;;;;;;;5055939;28;20176;-82
2023/12/14 06:42:04;;;;;;;14.50;10.67;;;;;;;;;;5056185;28;20537;-82
2023/12/14 06:45:10;;;;;;;16.13;11.67;;;;;;;;;;5056380;28;20184;-83
2023/12/14 06:48:14;;;;;;;16.03;11.03;;;;;;;;;;5054921;28;20188;-82
2023/12/14 06:51:18;;;;;;;15.67;11.00;;;;;;;;;;5055550;28;20641;-83
2023/12/14 06:54:22;;;;;;;14.30;10.97;;;;;;;;;;5043203;28;20176;-82
2023/12/14 06:57:26;;;;;;;16.60;11.33;;;;;;;;;;5093688;22;20244;-83
2023/12/14 07:00:30;;;;;;;23.37;15.10;;;;;;;;;;5043697;28;20172;-83
2023/12/14 07:03:34;;;;;;;15.77;11.67;;;;;;;;;;5054993;28;20188;-83
2023/12/14 07:06:38;;;;;;;14.60;11.40;;;;;;;;;;5055207;28;20203;-83
2023/12/14 07:09:46;;;;;;;13.83;10.47;;;;;;;;;;5039384;28;20181;-83
2023/12/14 07:12:50;;;;;;;13.83;10.83;;;;;;;;;;5040194;28;20185;-84
2023/12/14 07:15:54;;;;;;;14.40;11.03;;;;;;;;;;5039495;28;20172;-83
2023/12/14 07:18:58;;;;;;;15.17;10.37;;;;;;;;;;5038401;28;20212;-83
2023/12/14 07:22:02;;;;;;;12.90;10.23;;;;;;;;;;5039614;28;20173;-83
2023/12/14 07:25:06;;;;;;;15.47;10.47;;;;;;;;;;5040076;28;20188;-83
2023/12/14 07:28:11;;;;;;;12.80;10.10;;;;;;;;;;5038157;28;20697;-83
2023/12/14 07:31:15;;;;;;;12.37;9.47;;;;;;;;;;5039287;28;20185;-83
2023/12/14 07:34:20;;;;;;;12.70;9.47;;;;;;;;;;5038585;28;20184;-83
2023/12/14 07:37:25;;;;;;;13.60;9.23;;;;;;;;;;5039129;28;20208;-83
2023/12/14 07:40:29;;;;;;;14.27;10.03;;;;;;;;;;5039319;28;20181;-86
2023/12/14 07:43:33;;;;;;;14.40;10.10;;;;;;;;;;5015503;28;20629;-83
2023/12/14 07:46:41;;;;;;;12.73;10.20;;;;;;;;;;5027718;28;20570;-84
2023/12/14 07:49:46;;;;;;;35.47;24.93;;;;;;;;;;5040322;28;20184;-84
2023/12/14 07:52:50;;;;;;;16.50;13.93;;;;;;;;;;5041510;28;20181;-84
2023/12/14 07:55:54;;;;;;;16.03;11.40;;;;;;;;;;5029786;28;20181;-84
2023/12/14 07:58:58;;;;;;;17.43;14.07;;;;;;;;;;5040655;28;20585;-84
2023/12/14 08:02:02;;;;;;;16.23;12.30;;;;;;;;;;5038797;28;20526;-83
2023/12/14 08:05:06;;;;;;;15.57;11.50;;;;;;;;;;5037236;28;20185;-83
2023/12/14 08:08:10;;;;;;;15.40;9.93;;;;;;;;;;5037744;28;20204;-84
2023/12/14 08:11:14;;;;;;;13.83;9.27;;;;;;;;;;5038531;28;20181;-84
2023/12/14 08:14:18;;;;;;;13.17;9.33;;;;;;;;;;5027218;28;20180;-83
2023/12/14 08:17:23;;;;;;;14.73;9.93;;;;;;;;;;5038433;28;20212;-84
2023/12/14 08:20:27;;;;;;;13.87;10.20;;;;;;;;;;5037251;28;20188;-84
2023/12/14 08:23:31;;;;;;;11.77;8.37;;;;;;;;;;5038984;28;20181;-84
2023/12/14 08:26:35;;;;;;;13.17;9.13;;;;;;;;;;5037938;28;20542;-84
2023/12/14 08:29:39;;;;;;;12.03;8.67;;;;;;;;;;5026134;28;20189;-83
2023/12/14 08:32:44;;;;;;;10.27;8.30;;;;;;;;;;5038068;28;20181;-83
2023/12/14 08:35:48;;;;;;;10.63;7.40;;;;;;;;;;5037452;28;20188;-84
2023/12/14 08:38:53;;;;;;;11.67;7.97;;;;;;;;;;5037428;28;20693;-83
2023/12/14 08:41:57;;;;;;;9.90;7.30;;;;;;;;;;5038371;28;20185;-84
2023/12/14 08:45:01;;;;;;;11.67;7.10;;;;;;;;;;5037269;28;20181;-84
2023/12/14 08:48:05;;;;;;;9.67;6.77;;;;;;;;;;5037069;28;20228;-84
2023/12/14 08:51:09;;;;;;;8.70;6.67;;;;;;;;;;5038136;28;20181;-83
2023/12/14 08:54:13;;;;;;;8.80;6.37;;;;;;;;;;5025957;28;20184;-83
2023/12/14 08:57:18;;;;;;;9.70;7.87;;;;;;;;;;5037495;28;20177;-84
2023/12/14 09:00:22;;;;;;;10.23;7.23;;;;;;;;;;5025799;28;20540;-84
2023/12/14 09:03:26;;;;;;;12.37;7.30;;;;;;;;;;5014575;28;20533;-83
2023/12/14 09:06:30;;;;;;;9.90;6.80;;;;;;;;;;5025940;28;20208;-84
2023/12/14 09:09:34;;;;;;;8.67;6.67;;;;;;;;;;5037881;28;20649;-84
2023/12/14 09:12:38;;;;;;;8.73;6.60;;;;;;;;;;5025305;28;20181;-84
2023/12/14 09:15:42;;;;;;;10.83;6.63;;;;;;;;;;5037659;28;20522;-84
2023/12/14 09:18:47;;;;;;;15.13;11.67;;;;;;;;;;5036734;28;20701;-84
2023/12/14 09:21:51;;;;;;;13.77;8.10;;;;;;;;;;5036600;28;20189;-84
2023/12/14 09:24:55;;;;;;;11.10;7.63;;;;;;;;;;5025136;28;20181;-84
2023/12/14 09:27:59;;;;;;;10.30;7.00;;;;;;;;;;5035845;28;20224;-83
2023/12/14 09:31:03;;;;;;;7.97;6.47;;;;;;;;;;5035682;28;20180;-83
2023/12/14 09:34:09;;;;;;;8.83;7.00;;;;;;;;;;5035513;28;20177;-83
2023/12/14 09:37:14;;;;;;;8.40;6.23;;;;;;;;;;5036646;28;20176;-83
2023/12/14 09:40:19;;;;;;;8.47;6.30;;;;;;;;;;5036254;28;20185;-83
2023/12/14 09:43:23;;;;;;;8.33;6.63;;;;;;;;;;5024822;28;20637;-83
2023/12/14 09:46:27;;;;;;;7.73;6.13;;;;;;;;;;5036203;28;20212;-83
2023/12/14 09:49:33;;;;;;;8.77;6.00;;;;;;;;;;5035244;28;20184;-84
2023/12/14 09:52:37;;;;;;;7.60;5.77;;;;;;;;;;5035701;28;20181;-83
2023/12/14 09:55:41;;;;;;;8.37;6.00;;;;;;;;;;5035386;28;20184;-84
2023/12/14 09:58:45;;;;;;;6.40;5.37;;;;;;;;;;5036008;28;20220;-84
2023/12/14 10:01:49;;;;;;;9.57;5.57;;;;;;;;;;5040872;28;20189;-84
2023/12/14 10:04:53;;;;;;;6.47;5.03;;;;;;;;;;5040152;28;20185;-84
2023/12/14 10:07:57;;;;;;;7.33;4.60;;;;;;;;;;5036271;28;20232;-84
2023/12/14 10:11:04;;;;;;;6.83;5.30;;;;;;;;;;5036839;28;20181;-83
2023/12/14 10:14:26;;;;;;;6.77;4.77;;;;;;;;;;5035766;28;20185;-83
2023/12/14 10:17:32;;;;;;;7.10;4.60;;;;;;;;;;5035001;28;20208;-82
2023/12/14 10:20:37;;;;;;;7.87;4.83;;;;;;;;;;5035981;28;20192;-83
2023/12/14 10:23:41;;;;;;;5.97;4.40;;;;;;;;;;5035846;28;20649;-83
2023/12/14 10:26:46;;;;;;;5.57;4.20;;;;;;;;;;5034705;28;20212;-82
2023/12/14 10:29:51;;;;;;;6.30;5.70;;;;;;;;;;5023476;28;20181;-82
2023/12/14 10:32:55;;;;;;;9.03;6.47;;;;;;;;;;5035261;28;20181;-83
2023/12/14 10:36:00;;;;;;;16.10;11.07;;;;;;;;;;5034904;28;20188;-83
2023/12/14 10:39:05;;;;;;;6.53;4.60;;;;;;;;;;5035417;28;20216;-82
2023/12/14 10:42:10;;;;;;;5.03;3.20;;;;;;;;;;5022927;28;20181;-83
2023/12/14 10:45:16;;;;;;;4.20;3.40;;;;;;;;;;5034926;28;20661;-83
2023/12/14 10:48:21;;;;;;;6.10;3.57;;;;;;;;;;5034896;28;20224;-83
2023/12/14 10:51:27;;;;;;;4.17;3.43;;;;;;;;;;5033823;28;20185;-83
2023/12/14 10:54:34;;;;;;;3.30;3.00;;;;;;;;;;5035279;28;20172;-83
2023/12/14 10:57:39;;;;;;;4.80;2.63;;;;;;;;;;5034434;28;20222;-83
2023/12/14 11:00:44;;;;;;;4.57;2.60;;;;;;;;;;5034717;28;20181;-82
2023/12/14 11:03:50;;;;;;;8.77;3.10;;;;;;;;;;5034640;28;20553;-83
2023/12/14 11:06:54;;;;;;;4.73;2.80;;;;;;;;;;5022590;28;20213;-83
2023/12/14 11:09:59;;;;;;;4.13;2.83;;;;;;;;;;5035401;28;20184;-83
2023/12/14 11:13:10;;;;;;;4.17;2.90;;;;;;;;;;5034212;28;20180;-83
2023/12/14 11:16:15;;;;;;;3.73;3.20;;;;;;;;;;5036182;28;20173;-83
2023/12/14 11:19:22;;;;;;;5.37;3.13;;;;;;;;;;5027270;28;20233;-82
2023/12/14 11:22:27;;;;;;;5.90;3.70;;;;;;;;;;5037903;28;20181;-83
2023/12/14 11:25:32;;;;;;;5.20;3.30;;;;;;;;;;5038185;28;20527;-83
2023/12/14 11:28:43;;;;;;;5.07;3.70;;;;;;;;;;5037541;28;20233;-83
2023/12/14 11:31:47;;;;;;;6.00;4.27;;;;;;;;;;5038493;28;20181;-83
2023/12/14 11:34:51;;;;;;;7.50;4.10;;;;;;;;;;5039204;28;20177;-84
2023/12/14 11:38:05;;;;;;;8.67;4.33;;;;;;;;;;5041184;28;20212;-84
2023/12/14 11:41:09;;;;;;;7.27;4.87;;;;;;;;;;5034136;28;20176;-83
2023/12/14 11:44:22;;;;;;;7.67;4.90;;;;;;;;;;5042095;28;20181;-84
2023/12/14 11:47:26;;;;;;;8.97;4.77;;;;;;;;;;5040834;28;20229;-82
2023/12/14 11:50:36;;;;;;;7.40;5.00;;;;;;;;;;5046563;28;20177;-82
2023/12/14 11:53:42;;;;;;;7.47;4.50;;;;;;;;;;5049623;28;20185;-83
2023/12/14 11:56:48;;;;;;;5.87;4.27;;;;;;;;;;5050069;28;20184;-83
2023/12/14 11:59:52;;;;;;;7.40;4.17;;;;;;;;;;5049686;28;20188;-83
2023/12/14 12:03:09;;;;;;;4.57;3.80;;;;;;;;;;5048197;28;20224;-83
2023/12/14 12:06:27;;;;;;;7.30;4.30;;;;;;;;;;5047725;28;20177;-84
2023/12/14 12:09:37;;;;;;;5.57;4.13;;;;;;;;;;5049030;28;20169;-82
2023/12/14 12:12:42;;;;;;;4.87;3.50;;;;;;;;;;5045449;28;20642;-81
2023/12/14 12:15:47;;;;;;;7.37;3.83;;;;;;;;;;5045142;28;20185;-80
2023/12/14 12:18:51;;;;;;;7.93;4.00;;;;;;;;;;5046973;28;20216;-82
2023/12/14 12:21:55;;;;;;;4.93;3.70;;;;;;;;;;5044912;28;20184;-82
2023/12/14 12:25:00;;;;;;;5.47;3.47;;;;;;;;;;5048070;28;20181;-84
2023/12/14 12:28:05;;;;;;;10.33;3.73;;;;;;;;;;5044567;28;20224;-84
2023/12/14 12:31:09;;;;;;;6.93;3.57;;;;;;;;;;5044346;28;20236;-84
2023/12/14 12:34:13;;;;;;;5.87;3.50;;;;;;;;;;5044483;28;20185;-84
2023/12/14 12:37:17;;;;;;;5.23;3.60;;;;;;;;;;5032219;28;20177;-84
2023/12/14 12:40:25;;;;;;;6.87;3.90;;;;;;;;;;5032850;28;20181;-84
2023/12/14 12:43:29;;;;;;;5.60;3.90;;;;;;;;;;5045077;28;20181;-84
2023/12/14 12:46:37;;;;;;;8.50;6.53;;;;;;;;;;5044348;28;20185;-84
2023/12/14 12:49:43;;;;;;;17.83;9.03;;;;;;;;;;5031771;28;20178;-84
2023/12/14 12:52:48;;;;;;;12.40;7.53;;;;;;;;;;5042915;28;20185;-84
2023/12/14 12:55:52;;;;;;;8.67;4.87;;;;;;;;;;5043728;28;20622;-84
2023/12/14 13:04:18;;;;;;;9.10;5.00;;;;;;;;;;5068067;28;20180;-83
2023/12/14 13:07:22;;;;;;;9.93;5.30;;;;;;;;;;5061336;28;20208;-82
2023/12/14 13:10:27;;;;;;;6.67;4.27;;;;;;;;;;5061286;28;20188;-82
2023/12/14 13:13:31;;;;;;;8.50;4.37;;;;;;;;;;5062043;28;20188;-82
2023/12/14 13:16:36;;;;;;;6.80;4.43;;;;;;;;;;5060305;28;20180;-83
2023/12/14 13:19:40;;;;;;;8.83;6.17;;;;;;;;;;5061702;28;20180;-83
2023/12/14 13:22:45;;;;;;;12.10;8.90;;;;;;;;;;5061151;28;20180;-83
2023/12/14 13:25:49;;;;;;;26.60;13.33;;;;;;;;;;5062952;28;20195;-83
2023/12/14 13:28:53;;;;;;;9.30;6.37;;;;;;;;;;5060554;28;20228;-83
2023/12/14 13:31:59;;;;;;;13.27;6.07;;;;;;;;;;5060569;28;20184;-84
2023/12/14 13:35:03;;;;;;;10.27;6.00;;;;;;;;;;5059926;28;20184;-84
2023/12/14 13:38:08;;;;;;;5.27;4.47;;;;;;;;;;5060000;28;20208;-84
2023/12/14 13:41:12;;;;;;;11.47;6.80;;;;;;;;;;5060400;28;20636;-83
2023/12/14 13:44:16;;;;;;;7.30;6.03;;;;;;;;;;5058777;28;20184;-82
2023/12/14 13:47:20;;;;;;;10.33;6.43;;;;;;;;;;5058877;28;20180;-83
2023/12/14 13:50:27;;;;;;;7.37;5.57;;;;;;;;;;5060286;28;20176;-82
2023/12/14 13:53:32;;;;;;;8.07;5.83;;;;;;;;;;5060059;28;20184;-83
2023/12/14 13:56:35;;;;;;;5.13;4.50;;;;;;;;;;5060615;28;20184;-83
2023/12/14 13:59:40;;;;;;;6.87;5.33;;;;;;;;;;5060054;28;20181;-83
2023/12/14 14:02:44;;;;;;;8.77;4.80;;;;;;;;;;5047100;28;20172;-85
2023/12/14 14:05:48;;;;;;;6.47;4.60;;;;;;;;;;5057752;28;20180;-85
2023/12/14 14:08:53;;;;;;;9.00;4.47;;;;;;;;;;5057114;28;20224;-84
2023/12/14 14:11:56;;;;;;;6.30;4.07;;;;;;;;;;5057494;28;20534;-86
2023/12/14 14:15:01;;;;;;;6.40;4.33;;;;;;;;;;5058885;28;20629;-84
2023/12/14 14:18:05;;;;;;;8.47;4.33;;;;;;;;;;5057801;28;20215;-84
2023/12/14 14:21:09;;;;;;;5.73;4.23;;;;;;;;;;5044932;28;20183;-84
2023/12/14 14:24:13;;;;;;;6.03;3.77;;;;;;;;;;5057923;28;20175;-84
2023/12/14 14:27:17;;;;;;;6.83;4.20;;;;;;;;;;5058061;28;20184;-82
2023/12/14 14:30:22;;;;;;;6.80;4.33;;;;;;;;;;5057207;28;20176;-83
2023/12/14 14:33:27;;;;;;;8.00;4.23;;;;;;;;;;5058197;28;20181;-82
2023/12/14 14:36:31;;;;;;;6.37;4.20;;;;;;;;;;5046260;28;20563;-83
2023/12/14 14:39:37;;;;;;;5.73;4.40;;;;;;;;;;5058231;28;20184;-86
2023/12/14 14:42:43;;;;;;;6.37;4.10;;;;;;;;;;5045118;28;20176;-83
2023/12/14 14:45:47;;;;;;;7.07;4.67;;;;;;;;;;5057525;28;20180;-83
2023/12/14 14:48:51;;;;;;;6.80;4.87;;;;;;;;;;5056535;28;20227;-83
2023/12/14 14:51:55;;;;;;;6.10;4.13;;;;;;;;;;5056446;28;20175;-85
2023/12/14 14:55:00;;;;;;;7.43;4.13;;;;;;;;;;5057663;28;20180;-82
2023/12/14 14:58:04;;;;;;;5.63;4.13;;;;;;;;;;5057796;28;20712;-81
2023/12/14 15:01:08;;;;;;;7.30;4.50;;;;;;;;;;5057555;28;20212;-84
2023/12/14 15:04:13;;;;;;;7.00;5.03;;;;;;;;;;5045759;28;20544;-85
2023/12/14 15:07:17;;;;;;;8.27;4.57;;;;;;;;;;5056121;28;20180;-85
2023/12/14 15:10:21;;;;;;;7.50;5.07;;;;;;;;;;5056093;28;20634;-87
2023/12/14 15:13:25;;;;;;;8.70;5.80;;;;;;;;;;5056562;28;20180;-83
2023/12/14 15:16:29;;;;;;;6.47;5.07;;;;;;;;;;5058246;28;20188;-83
2023/12/14 15:19:33;;;;;;;56.60;32.00;;;;;;;;;;5046919;28;20173;-85
2023/12/14 15:22:38;;;;;;;315.07;112.07;;;;;;;;;;5058368;28;20176;-84
2023/12/14 15:25:42;;;;;;;256.17;83.57;;;;;;;;;;5057756;28;20188;-86
2023/12/14 15:28:48;;;;;;;449.30;150.07;;;;;;;;;;5057040;28;20230;-83
2023/12/14 15:31:53;;;;;;;30.70;15.93;;;;;;;;;;5048648;28;20191;-82
2023/12/14 15:34:57;;;;;;;15.57;9.50;;;;;;;;;;5061312;28;20176;-83
2023/12/14 15:38:02;;;;;;;7.13;5.20;;;;;;;;;;5060560;28;20215;-82
2023/12/14 15:41:07;;;;;;;10.53;5.40;;;;;;;;;;5061204;28;20184;-84
2023/12/14 15:44:11;;;;;;;8.13;4.30;;;;;;;;;;5060419;28;20184;-83
2023/12/14 15:47:15;;;;;;;9.30;4.57;;;;;;;;;;5049246;28;20518;-82
2023/12/14 15:50:19;;;;;;;5.87;4.07;;;;;;;;;;5061949;28;20182;-84
2023/12/14 15:53:23;;;;;;;6.93;4.13;;;;;;;;;;5061511;28;20176;-84
2023/12/14 15:56:29;;;;;;;16.03;10.63;;;;;;;;;;5060972;28;20184;-84
2023/12/14 15:59:33;;;;;;;11.80;6.70;;;;;;;;;;5058107;28;20629;-84
2023/12/14 16:02:38;;;;;;;8.43;5.37;;;;;;;;;;5058653;28;20177;-85
2023/12/14 16:05:42;;;;;;;8.57;5.63;;;;;;;;;;5046888;28;20185;-85
2023/12/14 16:08:46;;;;;;;8.47;4.33;;;;;;;;;;5047305;28;20224;-84
2023/12/14 16:11:50;;;;;;;6.57;4.33;;;;;;;;;;5061122;28;20181;-83
2023/12/14 16:14:56;;;;;;;4.97;4.17;;;;;;;;;;5047661;28;20180;-83
2023/12/14 16:18:01;;;;;;;7.73;4.40;;;;;;;;;;5060466;28;20622;-84
2023/12/14 16:21:04;;;;;;;4.83;3.57;;;;;;;;;;5047763;28;20176;-85
2023/12/14 16:24:08;;;;;;;8.47;4.50;;;;;;;;;;5047091;28;20184;-84
2023/12/14 16:27:12;;;;;;;8.63;4.40;;;;;;;;;;5058694;28;20181;-84
2023/12/14 16:30:17;;;;;;;8.43;3.90;;;;;;;;;;5046494;28;20219;-82
2023/12/14 16:33:21;;;;;;;7.93;4.07;;;;;;;;;;5046665;28;20184;-83
2023/12/14 16:36:25;;;;;;;8.13;4.23;;;;;;;;;;5058384;28;20176;-84
2023/12/14 16:39:29;;;;;;;7.13;4.60;;;;;;;;;;5058199;28;20580;-84
2023/12/14 16:42:33;;;;;;;7.30;4.57;;;;;;;;;;5060252;28;20624;-84
2023/12/14 16:45:38;;;;;;;9.93;4.50;;;;;;;;;;5047494;28;20176;-84
2023/12/14 16:48:42;;;;;;;7.07;4.50;;;;;;;;;;5059173;28;20616;-83
2023/12/14 16:51:46;;;;;;;6.57;5.10;;;;;;;;;;5060082;28;20176;-83
2023/12/14 16:54:50;;;;;;;6.00;4.37;;;;;;;;;;5048071;28;20180;-84
2023/12/14 16:57:55;;;;;;;8.20;5.00;;;;;;;;;;5059000;28;20215;-83
2023/12/14 17:00:59;;;;;;;8.70;5.17;;;;;;;;;;5058489;28;20648;-84
2023/12/14 17:04:07;;;;;;;10.60;5.37;;;;;;;;;;5047242;28;20184;-83
2023/12/14 17:07:11;;;;;;;7.93;4.93;;;;;;;;;;5058549;28;20180;-84
2023/12/14 17:10:15;;;;;;;7.17;5.23;;;;;;;;;;5034339;28;20580;-84
2023/12/14 17:13:19;;;;;;;8.90;6.20;;;;;;;;;;5045675;28;20184;-84
2023/12/14 17:16:23;;;;;;;9.70;6.67;;;;;;;;;;5046206;28;20184;-83
2023/12/14 17:19:28;;;;;;;10.23;6.43;;;;;;;;;;5058547;28;20177;-84
2023/12/14 17:22:37;;;;;;;11.70;7.13;;;;;;;;;;5056979;28;20176;-85
2023/12/14 17:25:41;;;;;;;11.50;6.40;;;;;;;;;;5056389;28;20177;-85
2023/12/14 17:28:49;;;;;;;12.80;6.93;;;;;;;;;;5033563;28;20565;-85
2023/12/14 17:31:54;;;;;;;11.20;8.43;;;;;;;;;;5045270;28;20633;-85
2023/12/14 17:34:58;;;;;;;9.17;6.60;;;;;;;;;;5057217;28;20180;-84
2023/12/14 17:38:02;;;;;;;15.23;7.13;;;;;;;;;;5056253;28;20607;-84
2023/12/14 17:41:14;;;;;;;11.60;7.30;;;;;;;;;;5057371;28;20176;-83
2023/12/14 17:44:20;;;;;;;10.07;7.17;;;;;;;;;;5057935;28;20522;-84
2023/12/14 17:47:24;;;;;;;12.10;6.97;;;;;;;;;;5055609;28;20688;-84
2023/12/14 17:50:31;;;;;;;13.47;7.40;;;;;;;;;;5056713;28;20323;-84
2023/12/14 17:53:35;;;;;;;14.80;8.17;;;;;;;;;;5056736;28;20184;-84
2023/12/14 17:56:39;;;;;;;14.07;8.10;;;;;;;;;;5044747;28;20621;-84
2023/12/14 17:59:43;;;;;;;13.30;8.83;;;;;;;;;;5044953;28;20180;-85
2023/12/14 18:02:47;;;;;;;11.87;8.73;;;;;;;;;;5046033;28;20176;-84
2023/12/14 18:05:52;;;;;;;12.53;8.60;;;;;;;;;;5045867;28;20570;-84
2023/12/14 18:08:56;;;;;;;12.57;7.80;;;;;;;;;;5045238;28;20219;-84
2023/12/14 18:12:00;;;;;;;12.50;8.20;;;;;;;;;;5045307;28;20180;-84
2023/12/14 18:15:05;;;;;;;12.50;7.17;;;;;;;;;;5058568;28;20184;-85
2023/12/14 18:18:10;;;;;;;6.83;4.90;;;;;;;;;;5059956;28;20216;-84
2023/12/14 18:21:15;;;;;;;9.90;5.30;;;;;;;;;;5056794;28;20176;-83